createdAt,value
2023-02-28T00:01:13.716Z,100.00
2023-02-28T00:03:43.202Z,100.00
2023-02-28T00:06:11.479Z,100.00
2023-02-28T00:08:40.136Z,100.00
2023-02-28T00:11:09.545Z,100.00
2023-02-28T00:13:38.915Z,100.00
2023-02-28T00:16:08.135Z,100.00
2023-02-28T00:18:36.232Z,100.00
2023-02-28T00:21:05.884Z,100.00
2023-02-28T00:23:33.966Z,100.00
2023-02-28T00:26:02.079Z,100.00
2023-02-28T00:28:30.467Z,100.00
2023-02-28T00:31:01.161Z,100.00
2023-02-28T00:33:30.623Z,100.00
2023-02-28T00:36:07.561Z,100.00
2023-02-28T00:38:37.704Z,100.00
2023-02-28T00:41:06.520Z,100.00
2023-02-28T00:43:35.136Z,100.00
2023-02-28T00:46:03.285Z,100.00
2023-02-28T00:48:32.012Z,100.00
2023-02-28T00:51:00.190Z,100.00
2023-02-28T00:53:29.632Z,100.00
2023-02-28T00:55:59.546Z,100.00
2023-02-28T00:58:28.066Z,100.00
2023-02-28T01:00:56.168Z,100.00
2023-02-28T01:03:24.592Z,100.00
2023-02-28T01:05:54.104Z,100.00
2023-02-28T01:08:22.499Z,100.00
2023-02-28T01:10:53.612Z,100.00
2023-02-28T01:13:21.853Z,100.00
2023-02-28T01:15:52.214Z,100.00
2023-02-28T01:18:21.084Z,100.00
2023-02-28T01:20:49.205Z,100.00
2023-02-28T01:23:18.468Z,100.00
2023-02-28T01:25:46.530Z,100.00
2023-02-28T01:28:15.991Z,100.00
2023-02-28T01:30:44.118Z,100.00
2023-02-28T01:33:12.213Z,100.00
2023-02-28T01:35:40.536Z,100.00
2023-02-28T01:38:21.709Z,100.00
2023-02-28T01:40:50.728Z,100.00
2023-02-28T01:43:22.925Z,100.00
2023-02-28T01:45:51.109Z,100.00
2023-02-28T01:48:19.470Z,100.00
2023-02-28T01:50:47.692Z,100.00
2023-02-28T01:53:16.750Z,100.00
2023-02-28T01:55:44.902Z,100.00
2023-02-28T01:58:12.985Z,100.00
2023-02-28T02:00:43.795Z,100.00
2023-02-28T02:03:15.658Z,100.00
2023-02-28T02:05:48.518Z,100.00
2023-02-28T02:08:19.350Z,100.00
2023-02-28T02:10:48.895Z,100.00
2023-02-28T02:13:33.048Z,100.00
2023-02-28T02:16:07.245Z,100.00
2023-02-28T02:18:37.454Z,100.00
2023-02-28T02:21:29.199Z,100.00
2023-02-28T02:24:26.633Z,100.00
2023-02-28T02:27:01.222Z,100.00
2023-02-28T02:29:58.151Z,100.00
2023-02-28T02:32:54.404Z,100.00
2023-02-28T02:35:24.893Z,100.00
2023-02-28T02:37:53.883Z,100.00
2023-02-28T02:40:22.538Z,100.00
2023-02-28T02:42:53.285Z,100.00
2023-02-28T02:45:24.930Z,100.00
2023-02-28T02:47:53.142Z,100.00
2023-02-28T02:50:26.181Z,100.00
2023-02-28T02:52:55.641Z,100.00
2023-02-28T02:55:24.666Z,100.00
2023-02-28T02:57:54.124Z,100.00
2023-02-28T03:00:24.530Z,100.00
2023-02-28T03:02:52.617Z,100.00
2023-02-28T03:05:23.869Z,100.00
2023-02-28T03:07:51.911Z,100.00
2023-02-28T03:10:34.563Z,100.00
2023-02-28T03:13:16.276Z,100.00
2023-02-28T03:15:51.538Z,100.00
2023-02-28T03:18:23.839Z,100.00
2023-02-28T03:20:56.406Z,100.00
2023-02-28T03:23:26.382Z,100.00
2023-02-28T03:25:58.265Z,100.00
2023-02-28T03:28:32.857Z,100.00
2023-02-28T03:31:01.995Z,100.00
2023-02-28T03:33:31.900Z,100.00
2023-02-28T03:36:02.580Z,100.00
2023-02-28T03:38:32.361Z,100.00
2023-02-28T03:41:03.671Z,100.00
2023-02-28T03:43:35.271Z,100.00
2023-02-28T03:46:04.721Z,100.00
2023-02-28T03:48:35.198Z,100.00
2023-02-28T03:51:04.800Z,100.00
2023-02-28T03:53:34.577Z,100.00
2023-02-28T03:56:05.262Z,100.00
2023-02-28T03:58:35.419Z,100.00
2023-02-28T04:01:09.067Z,100.00
2023-02-28T04:03:37.877Z,100.00
2023-02-28T04:06:08.366Z,100.00
2023-02-28T04:08:36.369Z,100.00
2023-02-28T04:11:06.979Z,100.00
2023-02-28T04:13:35.073Z,100.00
2023-02-28T04:16:03.263Z,100.00
2023-02-28T04:18:31.450Z,100.00
2023-02-28T04:21:02.353Z,100.00
2023-02-28T04:23:32.332Z,100.00
2023-02-28T04:26:00.349Z,100.00
2023-02-28T04:28:28.437Z,100.00
2023-02-28T04:30:57.635Z,100.00
2023-02-28T04:33:25.959Z,100.00
2023-02-28T04:36:01.017Z,100.00
2023-02-28T04:38:29.060Z,100.00
2023-02-28T04:41:00.424Z,100.00
2023-02-28T04:43:28.779Z,100.00
2023-02-28T04:45:57.680Z,100.00
2023-02-28T04:48:26.463Z,100.00
2023-02-28T04:50:54.561Z,100.00
2023-02-28T04:53:22.667Z,100.00
2023-02-28T04:55:50.717Z,100.00
2023-02-28T04:58:20.143Z,100.00
2023-02-28T05:00:48.284Z,100.00
2023-02-28T05:03:16.412Z,100.00
2023-02-28T05:05:44.592Z,100.00
2023-02-28T05:08:12.694Z,100.00
2023-02-28T05:10:40.746Z,100.00
2023-02-28T05:13:09.378Z,100.00
2023-02-28T05:15:38.818Z,100.00
2023-02-28T05:18:06.986Z,100.00
2023-02-28T05:20:35.073Z,100.00
2023-02-28T05:23:03.171Z,100.00
2023-02-28T05:25:31.322Z,100.00
2023-02-28T05:28:00.041Z,100.00
2023-02-28T05:30:28.160Z,100.00
2023-02-28T05:32:57.682Z,100.00
2023-02-28T05:35:25.794Z,100.00
2023-02-28T05:37:53.944Z,100.00
2023-02-28T05:40:22.263Z,100.00
2023-02-28T05:42:52.382Z,100.00
2023-02-28T05:45:20.559Z,100.00
2023-02-28T05:47:48.638Z,100.00
2023-02-28T05:50:18.324Z,100.00
2023-02-28T05:52:46.405Z,100.00
2023-02-28T05:55:14.762Z,100.00
2023-02-28T05:57:43.304Z,100.00
2023-02-28T06:00:12.619Z,100.00
2023-02-28T06:02:41.423Z,100.00
2023-02-28T06:05:11.249Z,100.00
2023-02-28T06:07:40.692Z,100.00
2023-02-28T06:10:09.679Z,100.00
2023-02-28T06:12:37.744Z,100.00
2023-02-28T06:15:06.491Z,100.00
2023-02-28T06:17:34.635Z,100.00
2023-02-28T06:20:03.389Z,100.00
2023-02-28T06:22:32.511Z,100.00
2023-02-28T06:25:01.927Z,100.00
2023-02-28T06:27:29.995Z,100.00
2023-02-28T06:29:58.253Z,100.00
2023-02-28T06:32:26.523Z,100.00
2023-02-28T06:34:55.070Z,100.00
2023-02-28T06:37:27.132Z,100.00
2023-02-28T06:39:56.838Z,100.00
2023-02-28T06:42:29.827Z,100.00
2023-02-28T06:44:58.074Z,100.00
2023-02-28T06:47:26.836Z,100.00
2023-02-28T06:49:55.264Z,100.00
2023-02-28T06:52:23.367Z,100.00
2023-02-28T06:55:00.669Z,100.00
2023-02-28T06:57:32.005Z,100.00
2023-02-28T07:00:00.700Z,100.00
2023-02-28T07:02:29.180Z,100.00
2023-02-28T07:04:57.318Z,100.00
2023-02-28T07:07:25.661Z,100.00
2023-02-28T07:09:53.735Z,100.00
2023-02-28T07:12:22.087Z,100.00
2023-02-28T07:14:51.568Z,100.00
2023-02-28T07:17:19.891Z,100.00
2023-02-28T07:19:48.000Z,100.00
2023-02-28T07:22:16.147Z,100.00
2023-02-28T07:24:44.647Z,100.00
2023-02-28T07:27:12.714Z,100.00
2023-02-28T07:29:40.726Z,100.00
2023-02-28T07:32:10.553Z,100.00
2023-02-28T07:34:38.641Z,100.00
2023-02-28T07:37:06.736Z,100.00
2023-02-28T07:39:34.801Z,100.00
2023-02-28T07:42:04.784Z,100.00
2023-02-28T07:44:35.076Z,100.00
2023-02-28T07:47:03.156Z,100.00
2023-02-28T07:49:33.160Z,100.00
2023-02-28T07:52:01.194Z,100.00
2023-02-28T07:54:29.260Z,100.00
2023-02-28T07:56:57.577Z,100.00
2023-02-28T07:59:25.632Z,100.00
2023-02-28T08:01:53.673Z,100.00
2023-02-28T08:04:21.894Z,100.00
2023-02-28T08:06:53.051Z,100.00
2023-02-28T08:09:21.142Z,100.00
2023-02-28T08:11:49.548Z,100.00
2023-02-28T08:14:17.575Z,100.00
2023-02-28T08:16:45.605Z,100.00
2023-02-28T08:19:13.686Z,100.00
2023-02-28T08:21:41.953Z,100.00
2023-02-28T08:24:11.465Z,100.00
2023-02-28T08:26:39.836Z,99.69
2023-02-28T08:29:07.956Z,100.00
2023-02-28T08:31:36.650Z,99.84
2023-02-28T08:34:07.736Z,97.80
2023-02-28T08:36:35.952Z,98.15
2023-02-28T08:39:04.632Z,96.71
2023-02-28T08:41:34.128Z,96.47
2023-02-28T08:44:02.534Z,96.02
2023-02-28T08:46:30.640Z,94.88
2023-02-28T08:49:01.113Z,93.67
2023-02-28T08:51:29.467Z,94.62
2023-02-28T08:53:58.461Z,93.03
2023-02-28T08:56:26.661Z,92.31
2023-02-28T08:58:57.359Z,91.77
2023-02-28T09:01:26.454Z,90.05
2023-02-28T09:06:28.721Z,87.83
2023-02-28T09:08:59.437Z,87.41
2023-02-28T09:11:27.638Z,86.12
2023-02-28T09:13:57.760Z,84.74
2023-02-28T09:16:25.906Z,84.67
2023-02-28T09:18:54.041Z,82.68
2023-02-28T09:21:22.453Z,80.65
2023-02-28T09:23:51.475Z,78.61
2023-02-28T09:26:20.483Z,78.10
2023-02-28T09:28:48.568Z,76.63
2023-02-28T09:31:21.795Z,76.42
2023-02-28T09:33:50.314Z,75.26
2023-02-28T09:36:18.812Z,74.94
2023-02-28T09:38:48.775Z,73.37
2023-02-28T09:41:18.597Z,72.22
2023-02-28T09:43:48.064Z,71.18
2023-02-28T09:46:29.952Z,73.20
2023-02-28T09:48:57.996Z,69.66
2023-02-28T09:51:49.856Z,74.82
2023-02-28T09:54:20.160Z,75.18
2023-02-28T09:56:50.071Z,75.98
2023-02-28T09:59:31.285Z,76.63
2023-02-28T10:02:04.794Z,78.67
2023-02-28T10:04:53.670Z,79.50
2023-02-28T10:07:31.568Z,81.64
2023-02-28T10:09:59.896Z,82.44
2023-02-28T10:12:28.118Z,81.43
2023-02-28T10:14:56.186Z,76.91
2023-02-28T10:17:27.602Z,75.79
2023-02-28T10:20:01.531Z,75.20
2023-02-28T10:22:31.418Z,74.78
2023-02-28T10:25:02.166Z,74.67
2023-02-28T10:27:31.908Z,73.26
2023-02-28T10:30:01.510Z,70.91
2023-02-28T10:32:32.630Z,69.84
2023-02-28T10:35:02.199Z,69.53
2023-02-28T10:37:30.262Z,68.47
2023-02-28T10:39:58.281Z,70.49
2023-02-28T10:42:27.637Z,71.17
2023-02-28T10:45:12.048Z,70.33
2023-02-28T10:47:50.660Z,71.96
2023-02-28T10:50:46.499Z,72.98
2023-02-28T10:53:25.400Z,72.70
2023-02-28T10:55:59.240Z,70.67
2023-02-28T10:58:28.230Z,70.46
2023-02-28T11:00:56.301Z,68.26
2023-02-28T11:03:32.263Z,69.57
2023-02-28T11:06:00.605Z,69.26
2023-02-28T11:08:28.708Z,69.14
2023-02-28T11:10:58.034Z,68.12
2023-02-28T11:13:28.516Z,67.32
2023-02-28T11:15:57.419Z,67.71
2023-02-28T11:18:26.856Z,68.05
2023-02-28T11:20:56.984Z,68.85
2023-02-28T11:23:25.328Z,67.51
2023-02-28T11:25:55.721Z,67.45
2023-02-28T11:28:28.620Z,66.29
2023-02-28T11:31:05.213Z,68.53
2023-02-28T11:33:34.268Z,68.91
2023-02-28T11:36:06.370Z,67.57
2023-02-28T11:38:35.080Z,69.23
2023-02-28T11:41:13.554Z,68.03
2023-02-28T11:43:51.153Z,67.27
2023-02-28T11:46:24.485Z,68.19
2023-02-28T11:48:56.720Z,67.99
2023-02-28T11:51:29.358Z,68.66
2023-02-28T11:54:12.184Z,69.30
2023-02-28T11:56:41.754Z,69.67
2023-02-28T11:59:35.537Z,68.22
2023-02-28T12:02:09.203Z,68.54
2023-02-28T12:04:41.253Z,68.46
2023-02-28T12:07:13.913Z,69.90
2023-02-28T12:09:49.357Z,69.74
2023-02-28T12:12:26.211Z,72.29
2023-02-28T12:15:19.692Z,72.45
2023-02-28T12:17:54.505Z,71.70
2023-02-28T12:20:27.928Z,71.96
2023-02-28T12:23:03.984Z,71.71
2023-02-28T12:25:54.966Z,71.97
2023-02-28T12:28:24.049Z,73.22
2023-02-28T12:30:55.550Z,74.48
2023-02-28T12:33:25.011Z,72.85
2023-02-28T12:35:56.715Z,73.92
2023-02-28T12:38:27.992Z,72.13
2023-02-28T12:40:58.099Z,73.86
2023-02-28T12:43:28.780Z,73.17
2023-02-28T12:45:58.593Z,73.55
2023-02-28T12:48:29.828Z,73.62
2023-02-28T12:50:57.886Z,73.85
2023-02-28T12:53:29.869Z,75.00
2023-02-28T12:56:03.779Z,76.29
2023-02-28T12:58:34.525Z,75.03
2023-02-28T13:01:16.025Z,75.15
2023-02-28T13:03:55.100Z,74.06
2023-02-28T13:06:33.201Z,75.14
2023-02-28T13:09:11.934Z,72.70
2023-02-28T13:11:45.867Z,76.03
2023-02-28T13:14:32.509Z,75.76
2023-02-28T13:17:05.469Z,76.27
2023-02-28T13:19:34.425Z,76.34
2023-02-28T13:22:02.537Z,76.29
2023-02-28T13:24:46.402Z,75.92
2023-02-28T13:27:26.383Z,77.62
2023-02-28T13:29:54.560Z,77.23
2023-02-28T13:32:40.395Z,77.76
2023-02-28T13:35:36.140Z,77.73
2023-02-28T13:38:36.746Z,78.69
2023-02-28T13:41:53.723Z,79.41
2023-02-28T13:44:25.054Z,80.64
2023-02-28T13:47:31.835Z,79.13
2023-02-28T13:50:25.040Z,79.25
2023-02-28T13:53:03.383Z,78.62
2023-02-28T13:55:32.679Z,80.75
2023-02-28T13:58:13.950Z,79.17
2023-02-28T14:00:57.743Z,80.39
2023-02-28T14:03:35.761Z,80.13
2023-02-28T14:06:21.204Z,81.05
2023-02-28T14:08:55.146Z,80.45
2023-02-28T14:11:28.726Z,80.82
2023-02-28T14:13:56.940Z,80.00
2023-02-28T14:16:28.654Z,80.70
2023-02-28T14:18:58.773Z,79.38
2023-02-28T14:21:27.667Z,79.67
2023-02-28T14:24:27.964Z,81.64
2023-02-28T14:27:18.499Z,81.40
2023-02-28T14:30:15.351Z,81.10
2023-02-28T14:32:47.661Z,81.85
2023-02-28T14:35:23.010Z,81.59
2023-02-28T14:37:51.068Z,81.38
2023-02-28T14:40:21.182Z,81.44
2023-02-28T14:42:50.019Z,81.57
2023-02-28T14:45:21.517Z,82.32
2023-02-28T14:47:51.001Z,82.66
2023-02-28T14:50:23.053Z,82.69
2023-02-28T14:52:53.867Z,83.37
2023-02-28T14:55:22.500Z,83.30
2023-02-28T14:57:54.111Z,83.07
2023-02-28T15:00:24.906Z,84.66
2023-02-28T15:02:54.972Z,84.88
2023-02-28T15:05:28.954Z,85.33
2023-02-28T15:08:05.307Z,85.29
2023-02-28T15:10:33.339Z,86.02
2023-02-28T15:13:02.485Z,85.40
2023-02-28T15:15:40.522Z,86.57
2023-02-28T15:18:19.588Z,86.60
2023-02-28T15:20:47.773Z,86.41
2023-02-28T15:23:16.238Z,87.81
2023-02-28T15:25:44.342Z,87.85
2023-02-28T15:28:16.257Z,88.09
2023-02-28T15:30:53.235Z,88.96
2023-02-28T15:33:23.616Z,88.57
2023-02-28T15:35:51.888Z,88.66
2023-02-28T15:38:24.013Z,89.05
2023-02-28T15:40:58.408Z,88.83
2023-02-28T15:43:28.641Z,89.37
2023-02-28T15:46:01.662Z,89.47
2023-02-28T15:48:32.350Z,89.56
2023-02-28T15:51:04.335Z,90.12
2023-02-28T15:53:34.009Z,90.23
2023-02-28T15:56:03.481Z,90.31
2023-02-28T15:58:32.123Z,90.66
2023-02-28T16:01:06.472Z,90.05
2023-02-28T16:03:46.802Z,90.79
2023-02-28T16:06:37.954Z,90.61
2023-02-28T16:09:09.034Z,91.05
2023-02-28T16:11:39.655Z,90.88
2023-02-28T16:14:08.489Z,91.13
2023-02-28T16:16:36.585Z,91.67
2023-02-28T16:19:06.079Z,91.54
2023-02-28T16:21:34.176Z,91.46
2023-02-28T16:24:02.256Z,90.45
2023-02-28T16:26:30.794Z,90.95
2023-02-28T16:28:58.858Z,91.51
2023-02-28T16:31:26.977Z,91.59
2023-02-28T16:33:55.293Z,91.67
2023-02-28T16:36:26.257Z,92.00
2023-02-28T16:38:54.456Z,92.13
2023-02-28T16:41:24.248Z,92.60
2023-02-28T16:43:53.671Z,92.76
2023-02-28T16:46:23.864Z,93.01
2023-02-28T16:48:52.646Z,93.03
2023-02-28T16:51:20.826Z,93.38
2023-02-28T16:53:50.278Z,93.41
2023-02-28T16:56:20.592Z,93.86
2023-02-28T16:58:49.047Z,93.84
2023-02-28T17:01:17.274Z,94.17
2023-02-28T17:03:45.415Z,94.14
2023-02-28T17:06:20.355Z,94.61
2023-02-28T17:08:48.487Z,94.51
2023-02-28T17:11:17.968Z,95.06
2023-02-28T17:13:46.141Z,95.13
2023-02-28T17:16:18.976Z,94.98
2023-02-28T17:18:47.092Z,95.42
2023-02-28T17:21:16.691Z,95.43
2023-02-28T17:23:45.124Z,95.21
2023-02-28T17:26:20.911Z,95.33
2023-02-28T17:28:49.100Z,96.10
2023-02-28T17:31:17.274Z,96.12
2023-02-28T17:33:45.461Z,96.29
2023-02-28T17:36:15.614Z,96.38
2023-02-28T17:38:43.709Z,96.50
2023-02-28T17:41:12.334Z,96.52
2023-02-28T17:43:41.963Z,96.22
2023-02-28T17:46:13.358Z,96.54
2023-02-28T17:48:41.556Z,97.09
2023-02-28T17:51:11.526Z,97.06
2023-02-28T17:53:39.682Z,97.05
2023-02-28T17:56:10.953Z,97.40
2023-02-28T17:58:39.029Z,97.32
2023-02-28T18:01:08.685Z,97.01
2023-02-28T18:03:36.746Z,97.55
2023-02-28T18:06:05.275Z,97.82
2023-02-28T18:08:34.495Z,97.67
2023-02-28T18:11:02.607Z,97.69
2023-02-28T18:13:30.895Z,97.98
2023-02-28T18:15:59.040Z,97.94
2023-02-28T18:18:28.791Z,97.92
2023-02-28T18:20:56.896Z,97.70
2023-02-28T18:23:25.024Z,98.53
2023-02-28T18:25:53.551Z,98.42
2023-02-28T18:28:21.710Z,97.90
2023-02-28T18:30:49.830Z,97.84
2023-02-28T18:33:18.197Z,97.70
2023-02-28T18:35:48.436Z,97.70
2023-02-28T18:38:17.399Z,97.73
2023-02-28T18:40:52.684Z,97.79
2023-02-28T18:43:20.809Z,98.08
2023-02-28T18:45:49.163Z,97.69
2023-02-28T18:48:19.628Z,97.68
2023-02-28T18:50:49.269Z,97.87
2023-02-28T18:53:17.613Z,98.31
2023-02-28T18:55:45.682Z,98.51
2023-02-28T18:58:14.569Z,98.29
2023-02-28T19:00:43.972Z,98.36
2023-02-28T19:03:12.099Z,98.49
2023-02-28T19:05:40.184Z,98.31
2023-02-28T19:08:10.343Z,98.42
2023-02-28T19:10:40.178Z,98.68
2023-02-28T19:13:09.136Z,98.91
2023-02-28T19:15:37.219Z,98.65
2023-02-28T19:18:05.692Z,98.50
2023-02-28T19:20:33.779Z,98.80
2023-02-28T19:23:02.290Z,98.35
2023-02-28T19:25:32.095Z,98.23
2023-02-28T19:28:00.229Z,98.54
2023-02-28T19:30:28.341Z,99.02
2023-02-28T19:32:56.428Z,98.91
2023-02-28T19:35:24.634Z,98.87
2023-02-28T19:37:53.352Z,99.05
2023-02-28T19:40:21.539Z,98.93
2023-02-28T19:42:51.408Z,99.88
2023-02-28T19:45:19.976Z,100.00
2023-02-28T19:47:48.103Z,100.00
2023-02-28T19:50:16.313Z,100.00
2023-02-28T19:52:44.838Z,100.00
2023-02-28T19:55:13.954Z,100.00
2023-02-28T20:00:39.278Z,100.00
2023-02-28T20:03:07.923Z,100.00
2023-02-28T20:05:35.997Z,100.00
2023-02-28T20:08:04.479Z,100.00
2023-02-28T20:10:32.552Z,100.00
2023-02-28T20:13:00.646Z,100.00
2023-02-28T20:15:28.803Z,100.00
2023-02-28T20:17:59.844Z,100.00
2023-02-28T20:20:27.997Z,100.00
2023-02-28T20:22:56.361Z,100.00
2023-02-28T20:25:24.538Z,100.00
2023-02-28T20:27:52.578Z,100.00
2023-02-28T20:30:22.764Z,100.00
2023-02-28T20:32:50.872Z,100.00
2023-02-28T20:35:20.838Z,100.00
2023-02-28T20:37:49.562Z,100.00
2023-02-28T20:40:17.648Z,100.00
2023-02-28T20:42:45.788Z,100.00
2023-02-28T20:45:13.883Z,100.00
2023-02-28T20:47:43.731Z,100.00
2023-02-28T20:50:13.641Z,100.00
2023-02-28T20:52:44.495Z,99.71
2023-02-28T20:55:13.818Z,99.96
2023-02-28T20:57:41.959Z,99.79
2023-02-28T21:00:15.785Z,100.00
2023-02-28T21:02:43.943Z,99.70
2023-02-28T21:05:12.202Z,99.61
2023-02-28T21:07:40.396Z,100.00
2023-02-28T21:10:11.420Z,99.89
2023-02-28T21:12:39.522Z,100.00
2023-02-28T21:15:09.215Z,100.00
2023-02-28T21:17:37.332Z,99.89
2023-02-28T21:20:05.943Z,99.99
2023-02-28T21:22:34.137Z,99.96
2023-02-28T21:25:02.325Z,99.61
2023-02-28T21:27:31.869Z,99.83
2023-02-28T21:30:00.245Z,99.79
2023-02-28T21:32:28.423Z,99.95
2023-02-28T21:34:56.551Z,99.54
2023-02-28T21:37:24.670Z,100.00
2023-02-28T21:39:52.975Z,100.00
2023-02-28T21:42:21.113Z,99.87
2023-02-28T21:44:51.390Z,99.23
2023-02-28T21:47:19.528Z,99.95
2023-02-28T21:49:47.656Z,99.89
2023-02-28T21:52:15.809Z,100.00
2023-02-28T21:54:43.892Z,99.91
2023-02-28T21:57:14.294Z,99.93
2023-02-28T21:59:42.720Z,99.90
2023-02-28T22:02:12.253Z,100.00
2023-02-28T22:04:40.345Z,100.00
2023-02-28T22:07:08.484Z,100.00
2023-02-28T22:09:36.640Z,99.92
2023-02-28T22:12:08.414Z,99.21
2023-02-28T22:14:37.201Z,99.08
2023-02-28T22:17:05.627Z,98.68
2023-02-28T22:19:36.020Z,99.08
2023-02-28T22:22:04.226Z,99.56
2023-02-28T22:24:32.571Z,99.95
2023-02-28T22:27:00.653Z,99.82
2023-02-28T22:29:28.787Z,100.00
2023-02-28T22:31:56.937Z,99.86
2023-02-28T22:34:25.039Z,100.00
2023-02-28T22:36:54.523Z,100.00
2023-02-28T22:39:22.841Z,100.00
2023-02-28T22:41:50.896Z,100.00
2023-02-28T22:44:19.015Z,100.00
2023-02-28T22:46:47.088Z,100.00
2023-02-28T22:49:15.226Z,100.00
2023-02-28T22:51:43.368Z,100.00
2023-02-28T22:54:13.158Z,100.00
2023-02-28T22:56:41.221Z,100.00
2023-02-28T22:59:09.366Z,100.00
2023-02-28T23:01:37.490Z,100.00
2023-02-28T23:04:05.992Z,100.00
2023-02-28T23:06:35.113Z,100.00
2023-02-28T23:09:04.733Z,100.00
2023-02-28T23:11:35.534Z,100.00
2023-02-28T23:14:03.770Z,100.00
2023-02-28T23:16:33.352Z,99.51
2023-02-28T23:19:02.535Z,99.65
2023-02-28T23:21:30.676Z,99.80
2023-02-28T23:23:58.734Z,99.78
2023-02-28T23:26:26.819Z,99.34
2023-02-28T23:28:56.293Z,99.54
2023-02-28T23:31:24.412Z,99.29
2023-02-28T23:33:52.826Z,99.04
2023-02-28T23:36:21.318Z,99.09
2023-02-28T23:38:50.741Z,99.15
2023-02-28T23:41:18.966Z,99.25
2023-02-28T23:43:47.179Z,99.37
2023-02-28T23:46:18.846Z,99.27
2023-02-28T23:48:46.957Z,99.12
2023-02-28T23:51:16.804Z,99.34
2023-02-28T23:53:45.617Z,99.51
2023-02-28T23:56:15.356Z,99.51
2023-02-28T23:58:43.769Z,99.22
